createdAt,value
2018-09-19T00:00:58.320Z,3.30
2018-09-19T00:01:58.310Z,3.00
2018-09-19T00:02:58.312Z,3.50
2018-09-19T00:03:58.295Z,3.00
2018-09-19T00:04:58.287Z,3.40
2018-09-19T00:05:58.284Z,3.30
2018-09-19T00:06:58.273Z,3.30
2018-09-19T00:07:58.268Z,3.50
2018-09-19T00:08:58.259Z,3.50
2018-09-19T00:09:58.254Z,3.80
2018-09-19T00:10:58.248Z,3.60
2018-09-19T00:11:58.270Z,3.30
2018-09-19T00:12:58.236Z,3.40
2018-09-19T00:13:58.227Z,3.10
2018-09-19T00:14:58.219Z,3.70
2018-09-19T00:15:58.208Z,3.30
2018-09-19T00:16:58.204Z,3.60
2018-09-19T00:17:58.191Z,3.00
2018-09-19T00:18:58.186Z,3.30
2018-09-19T00:19:58.190Z,3.20
2018-09-19T00:20:58.174Z,3.30
2018-09-19T00:21:58.160Z,3.30
2018-09-19T00:22:58.157Z,3.50
2018-09-19T00:23:58.149Z,3.40
2018-09-19T00:24:58.142Z,3.70
2018-09-19T00:25:58.130Z,3.70
2018-09-19T00:26:58.124Z,3.60
2018-09-19T00:27:58.174Z,3.50
2018-09-19T00:28:58.142Z,3.60
2018-09-19T00:29:58.101Z,3.50
2018-09-19T00:30:58.098Z,3.70
2018-09-19T00:31:58.091Z,4.00
2018-09-19T00:32:58.082Z,4.10
2018-09-19T00:33:58.074Z,3.70
2018-09-19T00:34:58.069Z,3.80
2018-09-19T00:35:58.058Z,3.70
2018-09-19T00:36:58.054Z,3.80
2018-09-19T00:37:58.047Z,4.20
2018-09-19T00:38:58.033Z,3.80
2018-09-19T00:39:58.028Z,3.90
2018-09-19T00:40:58.019Z,3.70
2018-09-19T00:41:58.022Z,3.60
2018-09-19T00:42:58.004Z,3.50
2018-09-19T00:43:57.998Z,3.80
2018-09-19T00:44:57.993Z,3.80
2018-09-19T00:45:57.981Z,3.50
2018-09-19T00:46:57.977Z,3.50
2018-09-19T00:47:57.973Z,3.40
2018-09-19T00:48:57.964Z,4.20
2018-09-19T00:49:57.949Z,3.60
2018-09-19T00:50:57.944Z,3.60
2018-09-19T00:51:57.934Z,3.90
2018-09-19T00:52:57.932Z,4.20
2018-09-19T00:53:57.919Z,3.90
2018-09-19T00:54:57.923Z,4.10
2018-09-19T00:55:57.902Z,4.10
2018-09-19T00:56:57.895Z,3.90
2018-09-19T00:57:57.890Z,4.10
2018-09-19T00:58:57.885Z,4.10
2018-09-19T00:59:57.876Z,3.70
2018-09-19T01:00:57.875Z,3.60
2018-09-19T01:01:57.858Z,4.00
2018-09-19T01:02:57.854Z,3.50
2018-09-19T01:03:57.844Z,3.10
2018-09-19T01:04:57.841Z,3.50
2018-09-19T01:05:57.831Z,3.60
2018-09-19T01:06:57.819Z,3.40
2018-09-19T01:07:57.812Z,3.50
2018-09-19T01:08:57.812Z,3.20
2018-09-19T01:09:57.795Z,3.50
2018-09-19T01:10:57.792Z,3.40
2018-09-19T01:11:57.786Z,3.40
2018-09-19T01:12:57.771Z,3.50
2018-09-19T01:13:57.766Z,3.40
2018-09-19T01:14:57.756Z,3.30
2018-09-19T01:15:57.755Z,3.60
2018-09-19T01:16:57.747Z,3.70
2018-09-19T01:17:57.735Z,3.60
2018-09-19T01:18:57.728Z,3.30
2018-09-19T01:19:57.729Z,3.70
2018-09-19T01:20:57.711Z,4.30
2018-09-19T01:21:57.706Z,3.50
2018-09-19T01:22:57.699Z,3.70
2018-09-19T01:23:57.689Z,3.90
2018-09-19T01:24:57.680Z,3.90
2018-09-19T01:25:57.671Z,4.00
2018-09-19T01:26:57.666Z,3.80
2018-09-19T01:27:57.662Z,3.90
2018-09-19T01:28:57.660Z,4.20
2018-09-19T01:29:57.642Z,4.30
2018-09-19T01:30:57.636Z,3.80
2018-09-19T01:31:57.635Z,3.90
2018-09-19T01:32:57.616Z,4.10
2018-09-19T01:33:57.610Z,4.00
2018-09-19T01:34:57.604Z,3.90
2018-09-19T01:35:57.592Z,3.70
2018-09-19T01:36:57.586Z,3.70
2018-09-19T01:37:57.583Z,3.80
2018-09-19T01:38:57.579Z,3.90
2018-09-19T01:39:57.588Z,3.70
2018-09-19T01:40:57.558Z,3.80
2018-09-19T01:41:57.550Z,3.80
2018-09-19T01:42:57.546Z,3.70
2018-09-19T01:43:57.530Z,3.90
2018-09-19T01:44:57.530Z,4.00
2018-09-19T01:45:57.518Z,3.80
2018-09-19T01:46:57.510Z,3.50
2018-09-19T01:47:57.500Z,3.30
2018-09-19T01:48:57.494Z,3.70
2018-09-19T01:49:57.485Z,3.70
2018-09-19T01:50:57.479Z,3.70
2018-09-19T01:51:57.468Z,3.70
2018-09-19T01:52:57.470Z,3.70
2018-09-19T01:53:57.454Z,3.70
2018-09-19T01:54:57.450Z,4.00
2018-09-19T01:55:57.444Z,4.00
2018-09-19T01:56:57.431Z,3.90
2018-09-19T01:57:57.424Z,3.90
2018-09-19T01:58:57.414Z,4.60
2018-09-19T01:59:57.411Z,4.00
2018-09-19T02:00:57.396Z,3.70
2018-09-19T02:01:57.394Z,4.10
2018-09-19T02:02:57.381Z,3.90
2018-09-19T02:03:57.381Z,4.00
2018-09-19T02:04:57.366Z,3.90
2018-09-19T02:05:57.357Z,3.90
2018-09-19T02:06:57.353Z,3.70
2018-09-19T02:07:57.342Z,4.00
2018-09-19T02:08:57.339Z,4.20
2018-09-19T02:09:57.329Z,4.00
2018-09-19T02:10:57.321Z,3.80
2018-09-19T02:11:57.316Z,3.90
2018-09-19T02:12:57.303Z,4.10
2018-09-19T02:13:57.301Z,4.10
2018-09-19T02:14:57.290Z,4.30
2018-09-19T02:15:57.285Z,4.30
2018-09-19T02:16:57.276Z,3.90
2018-09-19T02:17:57.329Z,4.50
2018-09-19T02:18:57.262Z,4.10
2018-09-19T02:19:57.255Z,4.30
2018-09-19T02:20:57.278Z,4.50
2018-09-19T02:21:57.239Z,4.50
2018-09-19T02:22:57.227Z,4.50
2018-09-19T02:23:57.222Z,3.90
2018-09-19T02:24:57.280Z,3.90
2018-09-19T02:25:57.203Z,4.00
2018-09-19T02:26:57.202Z,3.60
2018-09-19T02:27:57.189Z,4.00
2018-09-19T02:28:57.180Z,4.00
2018-09-19T02:29:57.170Z,3.70
2018-09-19T02:30:57.166Z,4.50
2018-09-19T02:31:57.158Z,3.80
2018-09-19T02:32:57.145Z,4.20
2018-09-19T02:33:57.144Z,4.30
2018-09-19T02:34:57.129Z,4.30
2018-09-19T02:35:57.127Z,4.20
2018-09-19T02:36:57.124Z,4.30
2018-09-19T02:37:57.106Z,4.20
2018-09-19T02:38:57.107Z,3.90
2018-09-19T02:39:57.090Z,4.10
2018-09-19T02:40:57.088Z,3.90
2018-09-19T02:41:57.076Z,4.30
2018-09-19T02:42:57.066Z,4.00
2018-09-19T02:43:57.059Z,4.40
2018-09-19T02:44:57.051Z,4.20
2018-09-19T02:45:57.045Z,4.50
2018-09-19T02:46:57.034Z,4.60
2018-09-19T02:47:57.030Z,4.20
2018-09-19T02:48:57.022Z,4.30
2018-09-19T02:49:57.011Z,4.50
2018-09-19T02:50:57.013Z,4.00
2018-09-19T02:51:57.011Z,4.00
2018-09-19T02:52:57.100Z,4.50
2018-09-19T02:53:56.984Z,4.60
2018-09-19T02:54:56.970Z,4.30
2018-09-19T02:55:56.970Z,4.00
2018-09-19T02:56:56.962Z,5.10
2018-09-19T02:57:56.960Z,4.20
2018-09-19T02:58:56.939Z,4.70
2018-09-19T02:59:56.939Z,4.30
2018-09-19T03:00:56.928Z,4.80
2018-09-19T03:01:56.922Z,3.80
2018-09-19T03:02:56.909Z,4.50
2018-09-19T03:03:56.905Z,4.60
2018-09-19T03:04:56.898Z,4.20
2018-09-19T03:05:56.887Z,4.20
2018-09-19T03:06:56.882Z,4.50
2018-09-19T03:07:56.874Z,4.10
2018-09-19T03:08:56.867Z,3.40
2018-09-19T03:09:56.852Z,4.10
2018-09-19T03:10:56.850Z,4.30
2018-09-19T03:11:56.842Z,4.40
2018-09-19T03:12:56.828Z,3.90
2018-09-19T03:13:56.820Z,4.20
2018-09-19T03:14:56.815Z,4.10
2018-09-19T03:15:56.813Z,4.20
2018-09-19T03:16:56.812Z,3.50
2018-09-19T03:17:56.795Z,4.10
2018-09-19T03:18:56.787Z,4.20
2018-09-19T03:19:56.776Z,4.20
2018-09-19T03:20:56.768Z,4.10
2018-09-19T03:21:56.758Z,4.00
2018-09-19T03:22:56.764Z,4.20
2018-09-19T03:23:56.751Z,4.20
2018-09-19T03:24:56.738Z,4.30
2018-09-19T03:25:56.731Z,4.30
2018-09-19T03:26:56.719Z,4.10
2018-09-19T03:27:56.717Z,4.10
2018-09-19T03:28:56.709Z,4.40
2018-09-19T03:29:56.699Z,4.50
2018-09-19T03:30:56.689Z,4.50
2018-09-19T03:31:56.678Z,4.50
2018-09-19T03:32:56.676Z,4.20
2018-09-19T03:33:56.668Z,4.40
2018-09-19T03:34:56.658Z,4.90
2018-09-19T03:35:56.650Z,4.50
2018-09-19T03:36:56.643Z,4.20
2018-09-19T03:37:56.632Z,4.50
2018-09-19T03:38:56.621Z,4.90
2018-09-19T03:39:56.615Z,4.50
2018-09-19T03:40:56.607Z,4.50
2018-09-19T03:41:56.602Z,4.90
2018-09-19T03:42:56.589Z,4.50
2018-09-19T03:43:56.587Z,4.10
2018-09-19T03:44:56.575Z,4.50
2018-09-19T03:45:56.565Z,4.40
2018-09-19T03:46:56.569Z,4.40
2018-09-19T03:47:56.552Z,4.20
2018-09-19T03:48:56.548Z,4.40
2018-09-19T03:49:56.537Z,4.80
2018-09-19T03:50:56.525Z,4.40
2018-09-19T03:51:56.519Z,4.70
2018-09-19T03:52:56.514Z,4.20
2018-09-19T03:53:56.507Z,4.00
2018-09-19T03:54:56.499Z,4.70
2018-09-19T03:55:56.488Z,4.20
2018-09-19T03:56:56.476Z,4.00
2018-09-19T03:57:56.473Z,4.60
2018-09-19T03:58:56.462Z,4.50
2018-09-19T03:59:56.454Z,4.80
2018-09-19T04:00:56.444Z,5.00
2018-09-19T04:01:56.435Z,4.20
2018-09-19T04:02:56.431Z,4.70
2018-09-19T04:03:56.419Z,4.70
2018-09-19T04:04:56.414Z,4.30
2018-09-19T04:05:56.407Z,4.30
2018-09-19T04:06:56.395Z,4.70
2018-09-19T04:07:56.394Z,4.90
2018-09-19T04:08:56.385Z,4.70
2018-09-19T04:09:56.375Z,4.60
2018-09-19T04:10:56.370Z,4.60
2018-09-19T04:11:56.356Z,5.60
2018-09-19T04:12:56.350Z,5.40
2018-09-19T04:13:56.341Z,4.90
2018-09-19T04:14:56.332Z,5.00
2018-09-19T04:15:56.346Z,5.10
2018-09-19T04:16:56.322Z,4.50
2018-09-19T04:17:56.390Z,5.00
2018-09-19T04:18:56.301Z,4.60
2018-09-19T04:19:56.296Z,4.60
2018-09-19T04:20:56.288Z,4.90
2018-09-19T04:21:56.282Z,4.70
2018-09-19T04:22:56.270Z,4.80
2018-09-19T04:23:56.261Z,4.60
2018-09-19T04:24:56.255Z,4.90
2018-09-19T04:25:56.240Z,5.00
2018-09-19T04:26:56.235Z,4.90
2018-09-19T04:27:56.230Z,5.30
2018-09-19T04:28:56.221Z,4.90
2018-09-19T04:29:56.213Z,5.10
2018-09-19T04:30:56.206Z,4.90
2018-09-19T04:31:56.200Z,5.80
2018-09-19T04:32:56.190Z,4.90
2018-09-19T04:33:56.208Z,5.80
2018-09-19T04:34:56.173Z,5.40
2018-09-19T04:35:56.160Z,5.20
2018-09-19T04:36:56.150Z,5.20
2018-09-19T04:37:56.144Z,5.50
2018-09-19T04:38:56.140Z,5.10
2018-09-19T04:39:56.124Z,4.90
2018-09-19T04:40:56.119Z,4.80
2018-09-19T04:41:56.113Z,4.80
2018-09-19T04:42:56.113Z,5.20
2018-09-19T04:43:56.094Z,4.80
2018-09-19T04:44:56.121Z,4.80
2018-09-19T04:45:56.080Z,4.70
2018-09-19T04:46:56.071Z,5.30
2018-09-19T04:47:56.063Z,5.50
2018-09-19T04:48:56.051Z,5.00
2018-09-19T04:49:56.064Z,5.00
2018-09-19T04:50:56.033Z,5.20
2018-09-19T04:51:56.029Z,5.50
2018-09-19T04:52:56.019Z,4.80
2018-09-19T04:53:56.020Z,5.40
2018-09-19T04:54:56.025Z,6.00
2018-09-19T04:55:55.994Z,6.00
2018-09-19T04:56:55.985Z,5.80
2018-09-19T04:57:55.980Z,6.60
2018-09-19T04:58:55.969Z,7.10
2018-09-19T04:59:55.963Z,7.60
2018-09-19T05:00:55.961Z,8.10
2018-09-19T05:01:55.944Z,9.10
2018-09-19T05:02:55.941Z,8.60
2018-09-19T05:03:55.930Z,8.90
2018-09-19T05:04:55.922Z,9.90
2018-09-19T05:05:55.916Z,11.20
2018-09-19T05:06:55.906Z,11.10
2018-09-19T05:07:55.900Z,14.00
2018-09-19T05:08:55.894Z,11.30
2018-09-19T05:09:55.883Z,11.70
2018-09-19T05:10:55.869Z,11.50
2018-09-19T05:11:55.871Z,11.70
2018-09-19T05:12:55.856Z,13.90
2018-09-19T05:13:55.845Z,14.60
2018-09-19T05:14:55.836Z,11.00
2018-09-19T05:15:55.832Z,11.10
2018-09-19T05:16:55.822Z,10.20
2018-09-19T05:17:55.811Z,9.70
2018-09-19T05:18:55.803Z,9.80
2018-09-19T05:19:55.798Z,9.00
2018-09-19T05:20:55.790Z,10.30
2018-09-19T05:21:55.778Z,9.50
2018-09-19T05:22:55.775Z,11.00
2018-09-19T05:23:55.761Z,9.90
2018-09-19T05:24:55.758Z,10.50
2018-09-19T05:25:55.758Z,10.30
2018-09-19T05:26:55.741Z,11.60
2018-09-19T05:27:55.734Z,10.10
2018-09-19T05:28:55.723Z,10.80
2018-09-19T05:29:55.717Z,12.10
2018-09-19T05:30:55.708Z,11.20
2018-09-19T05:31:55.708Z,11.80
2018-09-19T05:32:55.695Z,11.40
2018-09-19T05:33:55.683Z,10.90
2018-09-19T05:34:55.677Z,10.80
2018-09-19T05:35:55.689Z,11.50
2018-09-19T05:36:55.655Z,11.20
2018-09-19T05:37:55.651Z,9.70
2018-09-19T05:38:55.637Z,10.60
2018-09-19T05:39:55.628Z,9.80
2018-09-19T05:40:55.620Z,9.80
2018-09-19T05:41:55.612Z,9.30
2018-09-19T05:42:55.602Z,10.40
2018-09-19T05:43:55.602Z,10.80
2018-09-19T05:44:55.590Z,10.00
2018-09-19T05:45:55.584Z,11.00
2018-09-19T05:46:55.570Z,10.90
2018-09-19T05:47:55.561Z,11.50
2018-09-19T05:48:55.554Z,11.10
2018-09-19T05:49:55.542Z,10.90
2018-09-19T05:50:55.541Z,9.90
2018-09-19T05:51:55.527Z,10.90
2018-09-19T05:52:55.518Z,10.90
2018-09-19T05:53:55.514Z,9.10
2018-09-19T05:54:55.503Z,9.80
2018-09-19T05:55:55.496Z,14.00
2018-09-19T05:56:55.489Z,12.60
2018-09-19T05:57:55.483Z,12.20
2018-09-19T05:58:55.478Z,11.30
2018-09-19T05:59:55.463Z,10.90
2018-09-19T06:00:55.458Z,11.40
2018-09-19T06:01:55.453Z,11.20
2018-09-19T06:02:55.442Z,11.30
2018-09-19T06:03:55.439Z,11.80
2018-09-19T06:04:55.452Z,11.20
2018-09-19T06:05:55.416Z,11.70
2018-09-19T06:06:55.412Z,11.00
2018-09-19T06:07:55.409Z,9.80
2018-09-19T06:08:55.391Z,11.00
2018-09-19T06:09:55.384Z,9.80
2018-09-19T06:10:55.379Z,10.70
2018-09-19T06:11:55.364Z,11.70
2018-09-19T06:12:55.439Z,10.20
2018-09-19T06:13:55.350Z,11.30
2018-09-19T06:14:55.345Z,11.60
2018-09-19T06:15:55.331Z,10.50
2018-09-19T06:16:55.370Z,10.30
2018-09-19T06:17:55.318Z,10.30
2018-09-19T06:18:55.310Z,9.50
2018-09-19T06:19:55.308Z,10.70
2018-09-19T06:20:55.296Z,9.90
2018-09-19T06:21:55.286Z,10.60
2018-09-19T06:22:55.278Z,9.50
2018-09-19T06:23:55.269Z,9.90
2018-09-19T06:24:55.261Z,9.10
2018-09-19T06:25:55.269Z,9.50
2018-09-19T06:26:55.322Z,10.60
2018-09-19T06:27:55.241Z,9.90
2018-09-19T06:28:55.232Z,9.60
2018-09-19T06:29:55.231Z,9.70
2018-09-19T06:30:55.220Z,9.90
2018-09-19T06:31:55.207Z,10.00
2018-09-19T06:32:55.241Z,10.00
2018-09-19T06:33:55.194Z,9.90
2018-09-19T06:34:55.190Z,9.90
2018-09-19T06:35:55.177Z,9.80
2018-09-19T06:36:55.191Z,10.50
2018-09-19T06:37:55.167Z,9.70
2018-09-19T06:38:55.160Z,10.10
2018-09-19T06:39:55.190Z,10.10
2018-09-19T06:40:55.254Z,9.40
2018-09-19T06:41:55.136Z,9.10
2018-09-19T06:42:55.159Z,9.30
2018-09-19T06:43:55.119Z,9.10
2018-09-19T06:44:55.118Z,9.50
2018-09-19T06:45:55.104Z,8.90
2018-09-19T06:46:55.161Z,9.10
2018-09-19T06:47:55.097Z,9.10
2018-09-19T06:48:55.144Z,8.90
2018-09-19T06:49:55.083Z,8.70
2018-09-19T06:50:55.072Z,8.10
2018-09-19T06:51:55.092Z,8.90
2018-09-19T06:52:55.058Z,8.80
2018-09-19T06:53:55.048Z,9.30
2018-09-19T06:54:55.048Z,7.90
2018-09-19T06:55:55.034Z,8.50
2018-09-19T06:56:55.037Z,8.30
2018-09-19T06:57:55.021Z,7.80
2018-09-19T06:58:55.014Z,8.00
2018-09-19T06:59:55.014Z,9.20
2018-09-19T07:00:55.030Z,8.90
2018-09-19T07:01:55.004Z,9.90
2018-09-19T07:02:54.988Z,10.10
2018-09-19T07:03:54.988Z,9.00
2018-09-19T07:04:54.978Z,9.80
2018-09-19T07:05:55.026Z,9.30
2018-09-19T07:06:54.961Z,9.90
2018-09-19T07:07:54.957Z,9.80
2018-09-19T07:08:54.955Z,9.80
2018-09-19T07:09:54.941Z,9.10
2018-09-19T07:10:54.940Z,9.50
2018-09-19T07:11:54.936Z,8.80
2018-09-19T07:12:54.923Z,9.30
2018-09-19T07:13:54.919Z,10.10
2018-09-19T07:14:54.915Z,9.40
2018-09-19T07:15:54.909Z,9.30
2018-09-19T07:16:54.906Z,9.90
2018-09-19T07:17:54.896Z,10.10
2018-09-19T07:18:54.940Z,9.50
2018-09-19T07:19:54.886Z,9.80
2018-09-19T07:20:54.872Z,8.80
2018-09-19T07:21:54.869Z,9.50
2018-09-19T07:22:54.864Z,9.80
2018-09-19T07:23:54.922Z,9.80
2018-09-19T07:24:54.855Z,8.80
2018-09-19T07:25:54.845Z,9.40
2018-09-19T07:26:54.835Z,9.40
2018-09-19T07:27:54.836Z,10.20
2018-09-19T07:28:54.829Z,9.90
2018-09-19T07:29:54.819Z,10.00
2018-09-19T07:30:54.844Z,10.20
2018-09-19T07:31:54.818Z,9.90
2018-09-19T07:32:54.802Z,9.40
2018-09-19T07:33:54.796Z,9.40
2018-09-19T07:34:54.787Z,9.40
2018-09-19T07:35:54.784Z,9.20
2018-09-19T07:36:54.785Z,9.80
2018-09-19T07:37:54.769Z,9.30
2018-09-19T07:38:54.760Z,10.00
2018-09-19T07:39:54.754Z,10.10
2018-09-19T07:40:54.749Z,9.60
2018-09-19T07:41:54.743Z,9.00
2018-09-19T07:42:54.741Z,10.00
2018-09-19T07:43:54.731Z,9.90
2018-09-19T07:44:54.735Z,9.60
2018-09-19T07:45:54.717Z,10.30
2018-09-19T07:46:54.716Z,10.30
2018-09-19T07:47:54.709Z,8.90
2018-09-19T07:48:54.703Z,10.00
2018-09-19T07:49:54.701Z,9.50
2018-09-19T07:50:54.690Z,9.10
2018-09-19T07:51:54.684Z,9.50
2018-09-19T07:52:54.683Z,8.80
2018-09-19T07:53:54.670Z,9.00
2018-09-19T07:54:54.669Z,8.70
2018-09-19T07:55:54.664Z,8.70
2018-09-19T07:56:54.661Z,9.90
2018-09-19T07:57:54.678Z,9.80
2018-09-19T07:58:54.647Z,9.00
2018-09-19T07:59:54.642Z,8.80
2018-09-19T08:00:54.785Z,9.00
2018-09-19T08:01:54.628Z,9.30
2018-09-19T08:02:54.628Z,8.50
2018-09-19T08:03:54.613Z,8.90
2018-09-19T08:04:54.607Z,8.80
2018-09-19T08:05:54.601Z,9.40
2018-09-19T08:06:54.597Z,8.60
2018-09-19T08:07:54.638Z,9.50
2018-09-19T08:08:54.631Z,10.10
2018-09-19T08:09:54.586Z,10.40
2018-09-19T08:10:54.576Z,10.50
2018-09-19T08:11:54.567Z,10.20
2018-09-19T08:12:54.568Z,10.40
2018-09-19T08:13:54.562Z,8.90
2018-09-19T08:14:54.556Z,9.30
2018-09-19T08:15:54.551Z,9.50
2018-09-19T08:16:54.603Z,9.70
2018-09-19T08:17:54.542Z,9.10
2018-09-19T08:18:54.537Z,10.50
2018-09-19T08:19:54.524Z,10.20
2018-09-19T08:20:54.520Z,10.00
2018-09-19T08:21:54.520Z,9.60
2018-09-19T08:22:54.514Z,10.40
2018-09-19T08:23:54.504Z,10.80
2018-09-19T08:24:54.501Z,10.10
2018-09-19T08:25:54.491Z,9.70
2018-09-19T08:26:54.490Z,10.60
2018-09-19T08:27:54.489Z,11.30
2018-09-19T08:28:54.482Z,9.00
2018-09-19T08:29:54.472Z,10.20
2018-09-19T08:30:54.472Z,10.40
2018-09-19T08:31:54.465Z,10.30
2018-09-19T08:32:54.457Z,10.80
2018-09-19T08:33:54.457Z,10.10
2018-09-19T08:34:54.446Z,10.10
2018-09-19T08:35:54.439Z,9.50
2018-09-19T08:36:54.442Z,10.30
2018-09-19T08:37:54.434Z,9.50
2018-09-19T08:38:54.430Z,9.80
2018-09-19T08:39:54.419Z,9.60
2018-09-19T08:40:54.420Z,9.50
2018-09-19T08:41:54.411Z,9.50
2018-09-19T08:42:54.404Z,9.80
2018-09-19T08:43:54.405Z,8.90
2018-09-19T08:44:54.400Z,9.40
2018-09-19T08:45:54.389Z,8.90
2018-09-19T08:46:54.387Z,9.00
2018-09-19T08:47:54.387Z,8.80
2018-09-19T08:48:54.377Z,9.50
2018-09-19T08:49:54.369Z,9.20
2018-09-19T08:50:54.368Z,9.50
2018-09-19T08:51:54.365Z,8.70
2018-09-19T08:52:54.359Z,9.00
2018-09-19T08:53:54.357Z,8.20
2018-09-19T08:54:54.345Z,8.90
2018-09-19T08:55:54.339Z,8.80
2018-09-19T08:56:54.352Z,8.60
2018-09-19T08:57:54.333Z,9.20
2018-09-19T08:58:54.330Z,8.00
2018-09-19T08:59:54.326Z,8.60
2018-09-19T09:00:54.323Z,8.10
2018-09-19T09:01:54.316Z,8.70
2018-09-19T09:02:54.311Z,9.00
2018-09-19T09:03:54.301Z,8.70
2018-09-19T09:04:54.296Z,8.10
2018-09-19T09:05:54.291Z,8.70
2018-09-19T09:06:54.294Z,8.90
2018-09-19T09:07:54.292Z,8.30
2018-09-19T09:08:54.280Z,9.10
2018-09-19T09:09:54.280Z,8.50
2018-09-19T09:10:54.270Z,8.40
2018-09-19T09:11:54.267Z,8.90
2018-09-19T09:12:54.265Z,8.40
2018-09-19T09:13:54.262Z,8.20
2018-09-19T09:14:54.256Z,8.60
2018-09-19T09:15:54.257Z,8.30
2018-09-19T09:16:54.249Z,8.90
2018-09-19T09:17:54.246Z,9.00
2018-09-19T09:18:54.240Z,8.20
2018-09-19T09:19:54.287Z,8.20
2018-09-19T09:20:54.229Z,8.00
2018-09-19T09:21:54.229Z,9.00
2018-09-19T09:22:54.223Z,8.70
2018-09-19T09:23:54.221Z,7.90
2018-09-19T09:24:54.220Z,9.10
2018-09-19T09:25:54.211Z,8.00
2018-09-19T09:26:54.310Z,7.80
2018-09-19T09:27:54.207Z,8.00
2018-09-19T09:28:54.203Z,8.70
2018-09-19T09:29:54.195Z,8.50
2018-09-19T09:30:54.191Z,8.20
2018-09-19T09:31:54.190Z,8.00
2018-09-19T09:32:54.190Z,7.40
2018-09-19T09:33:54.182Z,7.60
2018-09-19T09:34:54.186Z,7.70
2018-09-19T09:35:54.175Z,7.20
2018-09-19T09:36:54.230Z,8.40
2018-09-19T09:37:54.172Z,7.50
2018-09-19T09:38:54.168Z,8.20
2018-09-19T09:39:54.166Z,8.00
2018-09-19T09:40:54.158Z,8.00
2018-09-19T09:41:54.160Z,7.90
2018-09-19T09:42:54.152Z,8.10
2018-09-19T09:43:54.148Z,7.90
2018-09-19T09:44:54.146Z,9.00
2018-09-19T09:45:54.169Z,8.50
2018-09-19T09:46:54.144Z,8.10
2018-09-19T09:47:54.135Z,7.50
2018-09-19T09:48:54.139Z,7.50
2018-09-19T09:49:54.127Z,8.40
2018-09-19T09:50:54.134Z,7.60
2018-09-19T09:51:54.122Z,7.10
2018-09-19T09:52:54.125Z,7.60
2018-09-19T09:53:54.119Z,7.70
2018-09-19T09:54:54.114Z,8.30
2018-09-19T09:55:54.111Z,8.00
2018-09-19T09:56:54.107Z,8.40
2018-09-19T09:57:54.105Z,7.60
2018-09-19T09:58:54.109Z,7.60
2018-09-19T09:59:54.105Z,7.20
2018-09-19T10:00:54.148Z,6.60
2018-09-19T10:01:54.094Z,6.90
2018-09-19T10:02:54.097Z,7.50
2018-09-19T10:03:54.092Z,6.70
2018-09-19T10:04:54.088Z,7.30
2018-09-19T10:05:54.090Z,6.80
2018-09-19T10:06:54.088Z,6.90
2018-09-19T10:07:54.084Z,7.10
2018-09-19T10:08:54.082Z,7.50
2018-09-19T10:09:54.078Z,7.40
2018-09-19T10:10:54.076Z,7.50
2018-09-19T10:11:54.069Z,7.10
2018-09-19T10:12:54.070Z,7.60
2018-09-19T10:13:54.063Z,7.70
2018-09-19T10:14:54.064Z,7.80
2018-09-19T10:15:54.066Z,7.50
2018-09-19T10:16:54.057Z,7.10
2018-09-19T10:17:54.056Z,7.50
2018-09-19T10:18:54.056Z,6.70
2018-09-19T10:19:54.053Z,7.20
2018-09-19T10:20:54.047Z,7.20
2018-09-19T10:21:54.044Z,6.80
2018-09-19T10:22:54.041Z,7.20
2018-09-19T10:23:54.042Z,7.20
2018-09-19T10:24:54.043Z,7.00
2018-09-19T10:25:54.036Z,7.00
2018-09-19T10:26:54.039Z,6.60
2018-09-19T10:27:54.039Z,7.20
2018-09-19T10:28:54.027Z,6.70
2018-09-19T10:29:54.027Z,6.70
2018-09-19T10:30:54.022Z,6.60
2018-09-19T10:31:54.020Z,7.50
2018-09-19T10:32:54.024Z,6.90
2018-09-19T10:33:54.015Z,7.10
2018-09-19T10:34:54.019Z,6.70
2018-09-19T10:35:54.018Z,7.20
2018-09-19T10:36:54.015Z,7.30
2018-09-19T10:37:54.013Z,6.70
2018-09-19T10:38:54.013Z,6.80
2018-09-19T10:39:54.007Z,6.10
2018-09-19T10:40:54.003Z,6.70
2018-09-19T10:41:54.000Z,6.50
2018-09-19T10:42:54.003Z,5.90
2018-09-19T10:43:54.045Z,6.40
2018-09-19T10:44:53.995Z,6.00
2018-09-19T10:45:54.193Z,6.30
2018-09-19T10:46:53.993Z,6.20
2018-09-19T10:47:53.994Z,6.00
2018-09-19T10:48:53.987Z,6.30
2018-09-19T10:49:53.987Z,5.70
2018-09-19T10:50:53.984Z,5.60
2018-09-19T10:51:53.982Z,6.10
2018-09-19T10:52:53.983Z,6.60
2018-09-19T10:53:53.978Z,6.50
2018-09-19T10:54:53.975Z,6.60
2018-09-19T10:55:53.980Z,6.60
2018-09-19T10:56:54.015Z,6.30
2018-09-19T10:57:53.977Z,6.60
2018-09-19T10:58:53.976Z,6.70
2018-09-19T10:59:53.971Z,6.30
2018-09-19T11:01:53.964Z,6.60
2018-09-19T11:02:53.963Z,6.90
2018-09-19T11:03:54.099Z,7.30
2018-09-19T11:04:53.964Z,6.80
2018-09-19T11:05:53.964Z,6.90
2018-09-19T11:06:53.965Z,6.30
2018-09-19T11:07:53.958Z,7.10
2018-09-19T11:08:53.954Z,6.80
2018-09-19T11:09:53.956Z,6.50
2018-09-19T11:10:53.959Z,6.90
2018-09-19T11:11:53.950Z,6.70
2018-09-19T11:12:53.952Z,6.70
2018-09-19T11:13:53.947Z,6.20
2018-09-19T11:14:53.945Z,6.70
2018-09-19T11:15:53.948Z,6.30
2018-09-19T11:16:53.944Z,6.10
2018-09-19T11:17:53.948Z,6.10
2018-09-19T11:18:53.941Z,6.40
2018-09-19T11:19:53.939Z,6.30
2018-09-19T11:20:53.944Z,5.90
2018-09-19T11:21:53.936Z,6.20
2018-09-19T11:22:53.941Z,6.10
2018-09-19T11:23:53.938Z,6.60
2018-09-19T11:24:53.936Z,6.50
2018-09-19T11:25:53.930Z,6.20
2018-09-19T11:26:53.933Z,5.50
2018-09-19T11:27:53.927Z,5.70
2018-09-19T11:28:53.937Z,5.50
2018-09-19T11:29:53.924Z,6.00
2018-09-19T11:30:53.924Z,5.30
2018-09-19T11:31:53.926Z,5.60
2018-09-19T11:32:53.926Z,5.70
2018-09-19T11:33:53.923Z,6.60
2018-09-19T11:34:53.927Z,6.80
2018-09-19T11:35:53.920Z,6.20
2018-09-19T11:36:53.922Z,6.40
2018-09-19T11:37:53.917Z,6.40
2018-09-19T11:38:53.922Z,6.00
2018-09-19T11:39:53.920Z,5.90
2018-09-19T11:40:53.915Z,5.40
2018-09-19T11:41:53.914Z,5.40
2018-09-19T11:42:53.912Z,5.70
2018-09-19T11:43:53.915Z,5.60
2018-09-19T11:44:53.911Z,6.10
2018-09-19T11:45:53.911Z,5.50
2018-09-19T11:46:53.910Z,5.80
2018-09-19T11:47:53.910Z,5.90
2018-09-19T11:48:53.910Z,6.10
2018-09-19T11:49:53.905Z,7.50
2018-09-19T11:50:53.910Z,8.40
2018-09-19T11:51:53.910Z,5.50
2018-09-19T11:52:53.910Z,5.70
2018-09-19T11:53:53.903Z,5.50
2018-09-19T11:54:53.908Z,6.40
2018-09-19T11:55:53.901Z,5.90
2018-09-19T11:56:53.904Z,5.70
2018-09-19T11:57:53.904Z,5.50
2018-09-19T11:58:53.898Z,5.90
2018-09-19T11:59:53.897Z,5.70
2018-09-19T12:00:53.900Z,5.60
2018-09-19T12:01:53.935Z,5.40
2018-09-19T12:02:53.898Z,5.80
2018-09-19T12:03:53.897Z,6.00
2018-09-19T12:04:53.896Z,6.60
2018-09-19T12:05:53.893Z,7.30
2018-09-19T12:06:53.897Z,6.20
2018-09-19T12:07:53.901Z,6.50
2018-09-19T12:08:53.894Z,5.50
2018-09-19T12:09:53.890Z,5.30
2018-09-19T12:10:53.892Z,5.70
2018-09-19T12:11:53.889Z,5.60
2018-09-19T12:12:53.890Z,5.00
2018-09-19T12:13:53.887Z,5.70
2018-09-19T12:14:53.893Z,5.00
2018-09-19T12:15:53.891Z,9.80
2018-09-19T12:16:53.888Z,6.40
2018-09-19T12:17:53.890Z,5.20
2018-09-19T12:18:53.883Z,8.20
2018-09-19T12:19:53.885Z,16.80
2018-09-19T12:20:53.887Z,12.70
2018-09-19T12:21:53.878Z,6.40
2018-09-19T12:22:53.882Z,6.10
2018-09-19T12:23:53.882Z,5.40
2018-09-19T12:24:53.885Z,5.20
2018-09-19T12:25:53.877Z,5.00
2018-09-19T12:26:53.878Z,6.20
2018-09-19T12:27:53.880Z,6.60
2018-09-19T12:28:53.876Z,6.00
2018-09-19T12:29:53.880Z,5.10
2018-09-19T12:30:53.881Z,5.30
2018-09-19T12:31:53.873Z,5.60
2018-09-19T12:32:53.873Z,5.40
2018-09-19T12:33:53.875Z,5.00
2018-09-19T12:34:53.872Z,5.90
2018-09-19T12:35:53.871Z,7.10
2018-09-19T12:36:53.876Z,6.50
2018-09-19T12:37:53.871Z,5.40
2018-09-19T12:38:53.870Z,5.10
2018-09-19T12:39:53.873Z,4.40
2018-09-19T12:40:53.874Z,5.10
2018-09-19T12:41:53.877Z,4.60
2018-09-19T12:42:53.874Z,4.70
2018-09-19T12:43:53.872Z,4.20
2018-09-19T12:44:53.868Z,4.90
2018-09-19T12:45:53.869Z,4.70
2018-09-19T12:46:53.868Z,4.70
2018-09-19T12:47:53.874Z,4.80
2018-09-19T12:48:53.868Z,4.60
2018-09-19T12:49:53.871Z,4.70
2018-09-19T12:50:53.867Z,5.00
2018-09-19T12:51:53.870Z,4.90
2018-09-19T12:52:53.870Z,4.80
2018-09-19T12:53:53.866Z,5.00
2018-09-19T12:54:53.866Z,4.50
2018-09-19T12:55:53.866Z,4.90
2018-09-19T12:56:53.869Z,5.50
2018-09-19T12:57:53.869Z,5.00
2018-09-19T12:58:53.872Z,4.80
2018-09-19T12:59:53.873Z,4.50
2018-09-19T13:00:53.869Z,4.70
2018-09-19T13:01:53.867Z,4.50
2018-09-19T13:02:53.871Z,4.50
2018-09-19T13:03:53.872Z,5.00
2018-09-19T13:04:53.866Z,4.30
2018-09-19T13:05:53.894Z,4.70
2018-09-19T13:06:53.865Z,4.40
2018-09-19T13:07:53.872Z,4.70
2018-09-19T13:08:53.876Z,4.40
2018-09-19T13:09:53.866Z,4.20
2018-09-19T13:10:53.866Z,4.40
2018-09-19T13:11:53.873Z,4.50
2018-09-19T13:12:53.867Z,4.30
2018-09-19T13:13:53.865Z,4.40
2018-09-19T13:14:53.871Z,4.10
2018-09-19T13:15:53.869Z,4.20
2018-09-19T13:16:53.869Z,4.60